createdAt,value
2017-05-08T00:00:23.109Z,0
2017-05-08T00:01:34.156Z,0
2017-05-08T00:02:45.169Z,0
2017-05-08T00:03:56.386Z,0
2017-05-08T00:05:07.393Z,0
2017-05-08T00:06:18.394Z,0
2017-05-08T00:07:29.386Z,0
2017-05-08T00:08:40.598Z,0
2017-05-08T00:09:51.607Z,0
2017-05-08T00:11:02.818Z,0
2017-05-08T00:12:13.870Z,0
2017-05-08T00:13:24.882Z,0
2017-05-08T00:14:35.906Z,0
2017-05-08T00:15:46.917Z,0
2017-05-08T00:16:57.922Z,0
2017-05-08T00:18:09.175Z,0
2017-05-08T00:19:20.189Z,0
2017-05-08T00:20:31.205Z,0
2017-05-08T00:21:42.229Z,0
2017-05-08T00:22:53.233Z,0
2017-05-08T00:24:04.442Z,0
2017-05-08T00:25:15.449Z,0
2017-05-08T00:26:26.647Z,0
2017-05-08T00:27:37.856Z,0
2017-05-08T00:28:48.883Z,0
2017-05-08T00:29:59.894Z,0
2017-05-08T00:31:10.922Z,0
2017-05-08T00:32:21.923Z,0
2017-05-08T00:33:32.926Z,0
2017-05-08T00:34:43.938Z,0
2017-05-08T00:35:54.996Z,0
2017-05-08T00:37:06.237Z,0
2017-05-08T00:38:17.247Z,0
2017-05-08T00:39:28.256Z,0
2017-05-08T00:40:39.266Z,0
2017-05-08T00:41:50.298Z,0
2017-05-08T00:43:01.322Z,0
2017-05-08T00:44:12.539Z,0
2017-05-08T00:45:23.590Z,0
2017-05-08T00:46:34.799Z,0
2017-05-08T00:47:45.798Z,0
2017-05-08T00:48:56.799Z,0
2017-05-08T00:50:07.810Z,0
2017-05-08T00:51:18.836Z,0
2017-05-08T00:52:29.843Z,0
2017-05-08T00:53:40.837Z,0
2017-05-08T00:54:52.055Z,0
2017-05-08T00:56:03.117Z,0
2017-05-08T00:57:14.119Z,0
2017-05-08T00:58:25.174Z,0
2017-05-08T00:59:36.191Z,0
2017-05-08T01:00:47.246Z,0
2017-05-08T01:01:58.251Z,0
2017-05-08T01:03:09.712Z,0
2017-05-08T01:04:20.710Z,0
2017-05-08T01:05:31.719Z,0
2017-05-08T01:06:42.764Z,0
2017-05-08T01:07:53.761Z,0
2017-05-08T01:09:04.782Z,0
2017-05-08T01:10:15.788Z,0
2017-05-08T01:11:26.805Z,0
2017-05-08T01:12:37.811Z,0
2017-05-08T01:13:48.825Z,0
2017-05-08T01:14:59.838Z,0
2017-05-08T01:16:10.864Z,0
2017-05-08T01:17:21.943Z,0
2017-05-08T01:18:32.958Z,0
2017-05-08T01:19:43.979Z,0
2017-05-08T01:20:54.979Z,0
2017-05-08T01:22:06.262Z,0
2017-05-08T01:23:17.484Z,0
2017-05-08T01:24:28.502Z,0
2017-05-08T01:25:39.502Z,0
2017-05-08T01:26:50.517Z,0
2017-05-08T01:28:01.579Z,0
2017-05-08T01:29:12.606Z,0
2017-05-08T01:30:23.639Z,0
2017-05-08T01:31:34.640Z,0
2017-05-08T01:32:45.650Z,0
2017-05-08T01:33:56.660Z,0
2017-05-08T01:35:07.660Z,0
2017-05-08T01:36:18.671Z,0
2017-05-08T01:37:29.683Z,0
2017-05-08T01:38:40.905Z,0
2017-05-08T01:39:52.120Z,0
2017-05-08T01:41:03.125Z,0
2017-05-08T01:42:14.126Z,0
2017-05-08T01:43:25.129Z,0
2017-05-08T01:44:36.211Z,0
2017-05-08T01:45:47.223Z,0
2017-05-08T01:46:58.433Z,0
2017-05-08T01:48:09.454Z,0
2017-05-08T01:49:20.656Z,0
2017-05-08T01:50:31.658Z,0
2017-05-08T01:51:42.651Z,0
2017-05-08T01:52:53.661Z,0
2017-05-08T01:54:04.666Z,0
2017-05-08T01:55:15.709Z,0
2017-05-08T01:56:26.721Z,0
2017-05-08T01:57:37.943Z,0
2017-05-08T01:58:48.961Z,0
2017-05-08T01:59:59.963Z,0
2017-05-08T02:01:10.980Z,0
2017-05-08T02:02:21.990Z,0
2017-05-08T02:03:33.000Z,0
2017-05-08T02:04:44.218Z,0
2017-05-08T02:05:55.293Z,0
2017-05-08T02:07:06.308Z,0
2017-05-08T02:08:17.310Z,0
2017-05-08T02:09:28.519Z,0
2017-05-08T02:10:39.741Z,0
2017-05-08T02:11:50.746Z,0
2017-05-08T02:13:01.759Z,0
2017-05-08T02:14:12.771Z,0
2017-05-08T02:15:23.778Z,0
2017-05-08T02:16:35.029Z,0
2017-05-08T02:17:46.031Z,0
2017-05-08T02:18:57.244Z,0
2017-05-08T02:20:08.236Z,0
2017-05-08T02:21:19.246Z,0
2017-05-08T02:22:30.249Z,0
2017-05-08T02:23:41.254Z,0
2017-05-08T02:24:52.270Z,0
2017-05-08T02:26:03.279Z,0
2017-05-08T02:27:14.335Z,0
2017-05-08T02:28:25.351Z,0
2017-05-08T02:29:36.359Z,0
2017-05-08T02:30:47.356Z,0
2017-05-08T02:31:58.356Z,0
2017-05-08T02:33:09.422Z,0
2017-05-08T02:34:20.423Z,0
2017-05-08T02:35:31.439Z,0
2017-05-08T02:36:42.442Z,0
2017-05-08T02:37:53.647Z,0
2017-05-08T02:39:04.848Z,0
2017-05-08T02:40:15.850Z,0
2017-05-08T02:41:26.859Z,0
2017-05-08T02:42:37.859Z,0
2017-05-08T02:43:48.872Z,0
2017-05-08T02:45:00.079Z,0
2017-05-08T02:46:11.101Z,0
2017-05-08T02:47:22.110Z,0
2017-05-08T02:48:33.134Z,0
2017-05-08T02:49:44.187Z,0
2017-05-08T02:50:55.196Z,0
2017-05-08T02:52:06.397Z,0
2017-05-08T02:53:17.431Z,0
2017-05-08T02:54:28.453Z,0
2017-05-08T02:55:39.666Z,0
2017-05-08T02:56:50.679Z,0
2017-05-08T02:58:01.691Z,0
2017-05-08T02:59:12.712Z,0
2017-05-08T03:00:23.777Z,0
2017-05-08T03:01:34.769Z,0
2017-05-08T03:02:45.814Z,0
2017-05-08T03:03:56.830Z,0
2017-05-08T03:05:07.838Z,0
2017-05-08T03:06:18.829Z,0
2017-05-08T03:07:29.828Z,0
2017-05-08T03:08:41.036Z,0
2017-05-08T03:09:52.241Z,0
2017-05-08T03:11:03.513Z,0
2017-05-08T03:12:14.504Z,0
2017-05-08T03:13:25.912Z,0
2017-05-08T03:14:37.115Z,0
2017-05-08T03:15:48.319Z,0
2017-05-08T03:16:59.322Z,0
2017-05-08T03:18:10.545Z,0
2017-05-08T03:19:21.558Z,0
2017-05-08T03:20:32.563Z,4
2017-05-08T03:21:43.619Z,4
2017-05-08T03:22:54.625Z,0
2017-05-08T03:24:05.627Z,0
2017-05-08T03:25:16.647Z,4
2017-05-08T03:26:27.648Z,0
2017-05-08T03:27:38.658Z,4
2017-05-08T03:28:49.661Z,4
2017-05-08T03:30:00.670Z,4
2017-05-08T03:31:11.678Z,8
2017-05-08T03:32:22.926Z,4
2017-05-08T03:33:34.132Z,4
2017-05-08T03:34:45.136Z,8
2017-05-08T03:35:56.147Z,8
2017-05-08T03:37:07.153Z,8
2017-05-08T03:38:18.366Z,8
2017-05-08T03:39:29.388Z,8
2017-05-08T03:40:40.436Z,12
2017-05-08T03:41:51.651Z,12
2017-05-08T03:43:02.669Z,12
2017-05-08T03:44:13.679Z,16
2017-05-08T03:45:24.693Z,16
2017-05-08T03:46:35.703Z,16
2017-05-08T03:47:46.919Z,20
2017-05-08T03:48:57.925Z,24
2017-05-08T03:50:08.930Z,24
2017-05-08T03:51:19.935Z,28
2017-05-08T03:52:31.165Z,32
2017-05-08T03:53:42.184Z,32
2017-05-08T03:54:53.238Z,32
2017-05-08T03:56:04.656Z,36
2017-05-08T03:57:15.659Z,36
2017-05-08T03:58:26.676Z,40
2017-05-08T03:59:37.696Z,40
2017-05-08T04:00:48.710Z,48
2017-05-08T04:01:59.913Z,52
2017-05-08T04:03:10.926Z,56
2017-05-08T04:04:21.984Z,60
2017-05-08T04:05:33.197Z,68
2017-05-08T04:06:44.414Z,76
2017-05-08T04:07:55.434Z,72
2017-05-08T04:09:06.447Z,68
2017-05-08T04:10:17.663Z,80
2017-05-08T04:11:28.866Z,88
2017-05-08T04:12:40.081Z,96
2017-05-08T04:13:51.106Z,112
2017-05-08T04:15:02.168Z,120
2017-05-08T04:16:13.181Z,124
2017-05-08T04:17:24.399Z,128
2017-05-08T04:18:35.414Z,128
2017-05-08T04:19:46.415Z,136
2017-05-08T04:20:57.431Z,140
2017-05-08T04:22:08.440Z,144
2017-05-08T04:23:19.442Z,168
2017-05-08T04:24:30.445Z,192
2017-05-08T04:25:41.508Z,216
2017-05-08T04:26:52.526Z,224
2017-05-08T04:28:03.567Z,220
2017-05-08T04:29:14.584Z,212
2017-05-08T04:30:25.598Z,212
2017-05-08T04:31:36.808Z,212
2017-05-08T04:32:47.817Z,192
2017-05-08T04:33:58.828Z,168
2017-05-08T04:35:09.846Z,156
2017-05-08T04:36:20.856Z,168
2017-05-08T04:37:31.865Z,196
2017-05-08T04:38:42.869Z,224
2017-05-08T04:39:53.886Z,220
2017-05-08T04:41:04.910Z,204
2017-05-08T04:42:15.911Z,196
2017-05-08T04:43:26.922Z,172
2017-05-08T04:44:37.938Z,156
2017-05-08T04:45:48.957Z,160
2017-05-08T04:46:59.968Z,184
2017-05-08T04:48:11.015Z,196
2017-05-08T04:49:22.029Z,196
2017-05-08T04:50:33.043Z,188
2017-05-08T04:51:44.037Z,184
2017-05-08T04:52:55.251Z,184
2017-05-08T04:54:06.463Z,188
2017-05-08T04:55:17.476Z,216
2017-05-08T04:56:28.486Z,248
2017-05-08T04:57:39.744Z,268
2017-05-08T04:58:50.756Z,304
2017-05-08T05:00:01.759Z,296
2017-05-08T05:01:12.765Z,308
2017-05-08T05:02:23.778Z,348
2017-05-08T05:03:35.023Z,388
2017-05-08T05:04:46.038Z,416
2017-05-08T05:05:57.052Z,444
2017-05-08T05:07:08.283Z,476
2017-05-08T05:08:19.534Z,532
2017-05-08T05:09:30.556Z,624
2017-05-08T05:10:41.566Z,664
2017-05-08T05:11:52.784Z,712
2017-05-08T05:13:03.785Z,752
2017-05-08T05:14:14.793Z,716
2017-05-08T05:15:25.814Z,704
2017-05-08T05:16:37.015Z,664
2017-05-08T05:17:48.029Z,672
2017-05-08T05:18:59.092Z,696
2017-05-08T05:20:10.108Z,736
2017-05-08T05:21:21.123Z,760
2017-05-08T05:22:32.120Z,836
2017-05-08T05:23:43.131Z,880
2017-05-08T05:24:54.143Z,940
2017-05-08T05:26:05.146Z,1120
2017-05-08T05:27:16.366Z,1256
2017-05-08T05:28:27.584Z,1240
2017-05-08T05:29:38.847Z,1168
2017-05-08T05:30:49.847Z,1164
2017-05-08T05:32:00.868Z,1248
2017-05-08T05:33:11.875Z,1336
2017-05-08T05:34:23.101Z,1344
2017-05-08T05:35:34.308Z,1240
2017-05-08T05:36:45.532Z,1120
2017-05-08T05:37:56.546Z,1152
2017-05-08T05:39:07.555Z,1312
2017-05-08T05:40:18.772Z,1316
2017-05-08T05:41:29.784Z,1360
2017-05-08T05:42:40.794Z,1224
2017-05-08T05:43:51.821Z,1300
2017-05-08T05:45:02.887Z,1364
2017-05-08T05:46:14.101Z,1352
2017-05-08T05:47:25.108Z,1368
2017-05-08T05:48:36.130Z,1372
2017-05-08T05:49:47.338Z,1364
2017-05-08T05:50:58.400Z,1316
2017-05-08T05:52:09.604Z,1304
2017-05-08T05:53:20.613Z,1344
2017-05-08T05:54:32.027Z,1376
2017-05-08T05:55:43.239Z,1376
2017-05-08T05:56:54.455Z,1388
2017-05-08T05:58:05.509Z,1384
2017-05-08T05:59:16.520Z,1408
2017-05-08T06:00:27.539Z,1448
2017-05-08T06:01:38.556Z,1524
2017-05-08T06:02:49.827Z,1632
2017-05-08T06:04:01.039Z,1780
2017-05-08T06:05:12.047Z,1824
2017-05-08T06:06:23.057Z,1840
2017-05-08T06:07:34.060Z,1880
2017-05-08T06:08:45.074Z,1864
2017-05-08T06:09:56.093Z,1788
2017-05-08T06:11:07.115Z,1728
2017-05-08T06:12:18.175Z,1700
2017-05-08T06:13:29.179Z,1688
2017-05-08T06:14:40.199Z,1692
2017-05-08T06:15:51.218Z,1692
2017-05-08T06:17:02.227Z,1708
2017-05-08T06:18:13.238Z,1732
2017-05-08T06:19:24.261Z,1748
2017-05-08T06:20:35.270Z,1776
2017-05-08T06:21:46.279Z,1816
2017-05-08T06:22:57.337Z,1848
2017-05-08T06:24:08.344Z,1884
2017-05-08T06:25:19.364Z,1928
2017-05-08T06:26:30.382Z,2016
2017-05-08T06:27:41.398Z,2140
2017-05-08T06:28:52.604Z,2224
2017-05-08T06:30:03.652Z,2196
2017-05-08T06:31:14.664Z,2128
2017-05-08T06:32:25.669Z,2152
2017-05-08T06:33:36.771Z,2176
2017-05-08T06:34:47.981Z,2204
2017-05-08T06:35:58.988Z,2200
2017-05-08T06:37:09.994Z,2212
2017-05-08T06:38:21.002Z,2236
2017-05-08T06:39:32.211Z,2244
2017-05-08T06:40:43.225Z,2260
2017-05-08T06:41:54.237Z,2288
2017-05-08T06:43:05.253Z,2332
2017-05-08T06:44:16.314Z,2376
2017-05-08T06:45:27.323Z,2408
2017-05-08T06:46:38.337Z,2440
2017-05-08T06:47:49.350Z,2484
2017-05-08T06:49:00.379Z,2440
2017-05-08T06:50:11.392Z,2388
2017-05-08T06:51:22.396Z,2440
2017-05-08T06:52:33.414Z,2496
2017-05-08T06:53:44.618Z,2432
2017-05-08T06:54:55.879Z,2352
2017-05-08T06:56:06.884Z,2336
2017-05-08T06:57:18.303Z,2356
2017-05-08T06:58:29.316Z,2300
2017-05-08T06:59:40.334Z,2244
2017-05-08T07:00:51.345Z,2232
2017-05-08T07:02:02.358Z,2232
2017-05-08T07:03:13.370Z,2236
2017-05-08T07:04:24.583Z,2252
2017-05-08T07:05:35.595Z,2280
2017-05-08T07:06:46.807Z,2288
2017-05-08T07:07:57.818Z,2300
2017-05-08T07:09:08.838Z,2232
2017-05-08T07:10:19.855Z,2144
2017-05-08T07:11:30.924Z,2136
2017-05-08T07:12:41.945Z,2148
2017-05-08T07:13:52.972Z,2208
2017-05-08T07:15:03.984Z,2276
2017-05-08T07:16:15.198Z,2428
2017-05-08T07:17:26.210Z,2552
2017-05-08T07:18:37.229Z,2636
2017-05-08T07:19:48.431Z,2668
2017-05-08T07:20:59.477Z,2668
2017-05-08T07:22:10.481Z,2612
2017-05-08T07:23:21.488Z,2504
2017-05-08T07:24:32.497Z,2336
2017-05-08T07:25:43.506Z,2260
2017-05-08T07:26:54.551Z,2268
2017-05-08T07:28:05.764Z,2328
2017-05-08T07:29:16.823Z,2396
2017-05-08T07:30:27.825Z,2420
2017-05-08T07:31:38.883Z,2480
2017-05-08T07:32:49.898Z,2532
2017-05-08T07:34:01.120Z,2728
2017-05-08T07:35:12.344Z,2972
2017-05-08T07:36:23.348Z,3164
2017-05-08T07:37:34.562Z,3280
2017-05-08T07:38:45.574Z,3292
2017-05-08T07:39:56.786Z,3272
2017-05-08T07:41:07.792Z,3392
2017-05-08T07:42:19.255Z,3508
2017-05-08T07:43:30.268Z,3460
2017-05-08T07:44:41.289Z,3428
2017-05-08T07:45:52.291Z,3372
2017-05-08T07:47:03.300Z,3272
2017-05-08T07:48:14.365Z,3232
2017-05-08T07:49:25.436Z,3236
2017-05-08T07:50:36.445Z,3244
2017-05-08T07:51:47.477Z,3276
2017-05-08T07:52:58.501Z,3308
2017-05-08T07:54:09.513Z,3344
2017-05-08T07:55:20.526Z,3448
2017-05-08T07:56:31.545Z,3508
2017-05-08T07:57:42.617Z,3532
2017-05-08T07:58:53.832Z,3512
2017-05-08T08:00:04.838Z,3524
2017-05-08T08:01:16.036Z,3636
2017-05-08T08:02:27.046Z,3704
2017-05-08T08:03:38.052Z,3708
2017-05-08T08:04:49.059Z,3720
2017-05-08T08:06:00.065Z,3820
2017-05-08T08:07:11.278Z,3912
2017-05-08T08:08:22.294Z,4068
2017-05-08T08:09:33.310Z,4232
2017-05-08T08:10:44.515Z,4392
2017-05-08T08:11:55.521Z,4488
2017-05-08T08:13:06.532Z,4600
2017-05-08T08:14:17.607Z,4788
2017-05-08T08:15:28.628Z,5040
2017-05-08T08:16:39.843Z,5136
2017-05-08T08:17:51.055Z,5048
2017-05-08T08:19:02.057Z,4876
2017-05-08T08:20:13.268Z,4816
2017-05-08T08:21:24.284Z,4900
2017-05-08T08:22:35.297Z,5072
2017-05-08T08:23:46.306Z,5172
2017-05-08T08:24:57.369Z,5184
2017-05-08T08:26:08.580Z,5216
2017-05-08T08:27:19.594Z,5244
2017-05-08T08:28:30.603Z,5388
2017-05-08T08:29:41.625Z,5528
2017-05-08T08:30:52.643Z,5680
2017-05-08T08:32:03.654Z,5824
2017-05-08T08:33:14.672Z,5776
2017-05-08T08:34:25.681Z,5684
2017-05-08T08:35:36.939Z,5620
2017-05-08T08:36:47.943Z,5408
2017-05-08T08:37:58.954Z,5232
2017-05-08T08:39:09.963Z,5144
2017-05-08T08:40:20.978Z,5224
2017-05-08T08:41:31.999Z,5192
2017-05-08T08:42:43.015Z,5032
2017-05-08T08:43:54.030Z,4796
2017-05-08T08:45:05.045Z,4656
2017-05-08T08:46:16.117Z,4576
2017-05-08T08:47:27.175Z,4456
2017-05-08T08:48:38.172Z,4456
2017-05-08T08:49:49.193Z,4452
2017-05-08T08:51:00.202Z,4328
2017-05-08T08:52:11.213Z,4272
2017-05-08T08:53:22.222Z,4096
2017-05-08T08:54:33.441Z,4044
2017-05-08T08:55:44.458Z,4152
2017-05-08T08:56:55.719Z,4120
2017-05-08T08:58:06.744Z,4096
2017-05-08T08:59:17.755Z,4088
2017-05-08T09:00:28.771Z,4132
2017-05-08T09:01:39.789Z,4124
2017-05-08T09:02:50.864Z,4184
2017-05-08T09:04:02.084Z,4396
2017-05-08T09:05:13.090Z,4544
2017-05-08T09:06:24.311Z,4616
2017-05-08T09:07:35.324Z,4640
2017-05-08T09:08:46.342Z,4640
2017-05-08T09:09:57.356Z,4700
2017-05-08T09:11:08.374Z,4644
2017-05-08T09:12:19.793Z,4420
2017-05-08T09:13:30.805Z,4404
2017-05-08T09:14:41.816Z,4732
2017-05-08T09:15:52.821Z,4832
2017-05-08T09:17:03.841Z,4840
2017-05-08T09:18:14.842Z,4896
2017-05-08T09:19:26.104Z,5540
2017-05-08T09:20:37.116Z,5840
2017-05-08T09:21:48.133Z,5536
2017-05-08T09:22:59.136Z,5176
2017-05-08T09:24:10.149Z,5448
2017-05-08T09:25:21.162Z,5708
2017-05-08T09:26:32.378Z,5584
2017-05-08T09:27:43.393Z,5564
2017-05-08T09:28:54.405Z,5572
2017-05-08T09:30:05.470Z,5508
2017-05-08T09:31:16.516Z,5552
2017-05-08T09:32:27.533Z,5760
2017-05-08T09:33:38.548Z,6064
2017-05-08T09:34:49.558Z,6024
2017-05-08T09:36:00.569Z,5932
2017-05-08T09:37:11.578Z,5744
2017-05-08T09:38:22.787Z,5636
2017-05-08T09:39:33.806Z,5712
2017-05-08T09:40:44.873Z,5824
2017-05-08T09:41:55.892Z,5892
2017-05-08T09:43:06.913Z,5876
2017-05-08T09:44:18.128Z,6008
2017-05-08T09:45:29.147Z,5980
2017-05-08T09:46:40.152Z,5896
2017-05-08T09:47:51.163Z,5840
2017-05-08T09:49:02.178Z,5876
2017-05-08T09:50:13.427Z,6244
2017-05-08T09:51:24.636Z,6696
2017-05-08T09:52:35.648Z,7004
2017-05-08T09:53:46.668Z,7364
2017-05-08T09:54:57.679Z,7648
2017-05-08T09:56:08.695Z,8216
2017-05-08T09:57:19.910Z,8728
2017-05-08T09:58:30.921Z,8636
2017-05-08T09:59:41.946Z,8108
2017-05-08T10:00:52.962Z,8552
2017-05-08T10:02:04.231Z,8736
2017-05-08T10:03:15.245Z,8964
2017-05-08T10:04:26.254Z,8688
2017-05-08T10:05:37.275Z,7692
2017-05-08T10:06:48.293Z,6720
2017-05-08T10:07:59.355Z,6356
2017-05-08T10:09:10.388Z,6428
2017-05-08T10:10:21.408Z,6600
2017-05-08T10:11:32.430Z,6872
2017-05-08T10:12:43.430Z,7396
2017-05-08T10:13:54.440Z,7816
2017-05-08T10:15:05.668Z,8008
2017-05-08T10:16:16.687Z,8244
2017-05-08T10:17:27.693Z,8860
2017-05-08T10:18:38.709Z,9004
2017-05-08T10:19:49.712Z,8340
2017-05-08T10:21:00.727Z,7868
2017-05-08T10:22:11.747Z,7584
2017-05-08T10:23:22.757Z,7572
2017-05-08T10:24:33.811Z,7576
2017-05-08T10:25:44.811Z,7280
2017-05-08T10:26:55.837Z,7112
2017-05-08T10:28:06.886Z,7144
2017-05-08T10:29:18.342Z,7288
2017-05-08T10:30:29.352Z,7588
2017-05-08T10:31:40.573Z,7280
2017-05-08T10:32:51.779Z,6888
2017-05-08T10:34:02.790Z,6584
2017-05-08T10:35:13.858Z,6176
2017-05-08T10:36:24.888Z,5808
2017-05-08T10:37:35.900Z,5384
2017-05-08T10:38:46.916Z,5568
2017-05-08T10:39:57.926Z,6556
2017-05-08T10:41:08.938Z,7900
2017-05-08T10:42:19.938Z,9588
2017-05-08T10:43:30.962Z,10728
2017-05-08T10:44:41.982Z,11408
2017-05-08T10:45:53.061Z,12168
2017-05-08T10:47:04.285Z,12724
2017-05-08T10:48:15.498Z,12704
2017-05-08T10:49:26.516Z,12508
2017-05-08T10:50:37.528Z,12152
2017-05-08T10:51:48.541Z,11816
2017-05-08T10:52:59.547Z,11644
2017-05-08T10:54:10.556Z,11448
2017-05-08T10:55:21.565Z,11196
2017-05-08T10:56:32.616Z,11064
2017-05-08T10:57:43.627Z,11060
2017-05-08T10:58:54.648Z,10580
2017-05-08T11:00:05.661Z,9252
2017-05-08T11:01:16.684Z,7976
2017-05-08T11:02:27.893Z,6964
2017-05-08T11:03:38.908Z,6276
2017-05-08T11:04:49.917Z,6020
2017-05-08T11:06:00.931Z,6060
2017-05-08T11:07:11.992Z,6092
2017-05-08T11:08:23.008Z,6200
2017-05-08T11:09:34.021Z,6056
2017-05-08T11:10:45.040Z,5784
2017-05-08T11:11:56.253Z,5828
2017-05-08T11:13:07.314Z,6468
2017-05-08T11:14:18.749Z,7088
2017-05-08T11:15:29.762Z,7092
2017-05-08T11:16:40.785Z,7000
2017-05-08T11:17:51.796Z,6880
2017-05-08T11:19:02.802Z,6312
2017-05-08T11:20:13.824Z,5336
2017-05-08T11:21:24.826Z,4620
2017-05-08T11:22:35.845Z,4748
2017-05-08T11:23:46.863Z,5520
2017-05-08T11:24:57.932Z,5880
2017-05-08T11:26:08.941Z,5536
2017-05-08T11:27:19.954Z,5148
2017-05-08T11:28:30.965Z,4724
2017-05-08T11:29:41.980Z,4572
2017-05-08T11:30:53.200Z,4660
2017-05-08T11:32:04.216Z,4872
2017-05-08T11:33:15.423Z,4940
2017-05-08T11:34:26.488Z,4832
2017-05-08T11:35:37.504Z,4632
2017-05-08T11:36:48.519Z,4528
2017-05-08T11:37:59.552Z,4592
2017-05-08T11:39:10.569Z,4832
2017-05-08T11:40:21.581Z,5072
2017-05-08T11:41:32.610Z,5216
2017-05-08T11:42:43.622Z,5412
2017-05-08T11:43:54.639Z,5300
2017-05-08T11:45:05.911Z,4796
2017-05-08T11:46:16.927Z,4068
2017-05-08T11:47:27.946Z,3536
2017-05-08T11:48:38.961Z,3224
2017-05-08T11:49:50.184Z,3088
2017-05-08T11:51:01.396Z,3068
2017-05-08T11:52:12.420Z,3112
2017-05-08T11:53:23.437Z,3268
2017-05-08T11:54:34.469Z,3480
2017-05-08T11:55:45.739Z,3652
2017-05-08T11:56:56.756Z,3772
2017-05-08T11:58:07.771Z,3896
2017-05-08T11:59:18.786Z,3988
2017-05-08T12:00:29.805Z,4164
2017-05-08T12:01:40.823Z,4232
2017-05-08T12:02:51.834Z,4032
2017-05-08T12:04:02.850Z,3812
2017-05-08T12:05:13.865Z,3756
2017-05-08T12:06:24.929Z,3864
2017-05-08T12:07:35.937Z,3872
2017-05-08T12:08:46.954Z,3916
2017-05-08T12:09:57.968Z,4256
2017-05-08T12:11:08.976Z,4508
2017-05-08T12:12:20.022Z,4620
2017-05-08T12:13:31.242Z,4436
2017-05-08T12:14:42.301Z,3868
2017-05-08T12:15:53.517Z,3452
2017-05-08T12:17:04.585Z,3144
2017-05-08T12:18:15.615Z,2944
2017-05-08T12:19:26.628Z,2888
2017-05-08T12:20:37.641Z,3232
2017-05-08T12:21:48.861Z,3740
2017-05-08T12:22:59.886Z,4192
2017-05-08T12:24:10.901Z,4500
2017-05-08T12:25:22.117Z,4440
2017-05-08T12:26:33.122Z,4148
2017-05-08T12:27:44.136Z,4000
2017-05-08T12:28:55.198Z,3836
2017-05-08T12:30:06.213Z,4064
2017-05-08T12:31:17.221Z,4496
2017-05-08T12:32:28.232Z,4652
2017-05-08T12:33:39.240Z,4772
2017-05-08T12:34:50.242Z,4856
2017-05-08T12:36:01.250Z,4864
2017-05-08T12:37:12.270Z,4780
2017-05-08T12:38:23.330Z,4784
2017-05-08T12:39:34.343Z,4852
2017-05-08T12:40:45.347Z,4724
2017-05-08T12:41:56.354Z,4452
2017-05-08T12:43:07.377Z,4204
2017-05-08T12:44:18.390Z,3996
2017-05-08T12:45:29.392Z,3848
2017-05-08T12:46:40.412Z,3724
2017-05-08T12:47:51.427Z,3568
2017-05-08T12:49:02.489Z,3636
2017-05-08T12:50:13.507Z,3860
2017-05-08T12:51:24.721Z,4020
2017-05-08T12:52:35.761Z,3804
2017-05-08T12:53:46.975Z,3828
2017-05-08T12:54:58.187Z,3980
2017-05-08T12:56:09.205Z,3832
2017-05-08T12:57:20.228Z,3672
2017-05-08T12:58:31.246Z,3580
2017-05-08T12:59:42.517Z,3352
2017-05-08T13:00:53.522Z,3288
2017-05-08T13:02:04.535Z,3388
2017-05-08T13:03:15.563Z,3452
2017-05-08T13:04:26.574Z,3360
2017-05-08T13:05:37.587Z,3180
2017-05-08T13:06:48.599Z,3092
2017-05-08T13:07:59.610Z,3040
2017-05-08T13:09:10.615Z,2992
2017-05-08T13:10:21.640Z,2948
2017-05-08T13:11:32.654Z,2800
2017-05-08T13:12:43.675Z,2644
2017-05-08T13:13:54.699Z,2684
2017-05-08T13:15:05.762Z,2788
2017-05-08T13:16:16.768Z,2800
2017-05-08T13:17:27.784Z,2688
2017-05-08T13:18:38.800Z,2632
2017-05-08T13:19:49.817Z,2584
2017-05-08T13:21:00.838Z,2556
2017-05-08T13:22:11.859Z,2452
2017-05-08T13:23:22.862Z,2384
2017-05-08T13:24:33.879Z,2460
2017-05-08T13:25:44.885Z,2512
2017-05-08T13:26:55.905Z,2548
2017-05-08T13:28:07.368Z,2576
2017-05-08T13:29:18.383Z,2704
2017-05-08T13:30:29.796Z,2880
2017-05-08T13:31:40.852Z,3224
2017-05-08T13:32:52.064Z,3448
2017-05-08T13:34:03.070Z,3520
2017-05-08T13:35:14.282Z,3088
2017-05-08T13:36:25.307Z,2672
2017-05-08T13:37:36.314Z,2444
2017-05-08T13:38:47.333Z,2468
2017-05-08T13:39:58.353Z,2468
2017-05-08T13:41:09.413Z,2632
2017-05-08T13:42:20.435Z,2756
2017-05-08T13:43:31.454Z,2740
2017-05-08T13:44:42.472Z,2684
2017-05-08T13:45:53.494Z,2616
2017-05-08T13:47:04.710Z,2656
2017-05-08T13:48:16.146Z,2840
2017-05-08T13:49:27.369Z,3016
2017-05-08T13:50:38.389Z,3512
2017-05-08T13:51:49.463Z,3656
2017-05-08T13:53:00.478Z,3736
2017-05-08T13:54:11.690Z,3784
2017-05-08T13:55:22.702Z,3552
2017-05-08T13:56:33.725Z,2768
2017-05-08T13:57:44.735Z,2556
2017-05-08T13:58:55.755Z,2804
2017-05-08T14:00:06.773Z,2796
2017-05-08T14:01:17.788Z,2480
2017-05-08T14:02:28.849Z,2316
2017-05-08T14:03:39.857Z,2328
2017-05-08T14:04:50.863Z,2488
2017-05-08T14:06:01.877Z,2536
2017-05-08T14:07:12.888Z,2232
2017-05-08T14:08:23.894Z,2168
2017-05-08T14:09:34.913Z,2708
2017-05-08T14:10:46.116Z,3644
2017-05-08T14:11:57.333Z,5056
2017-05-08T14:13:08.399Z,6236
2017-05-08T14:14:19.413Z,7180
2017-05-08T14:15:30.422Z,7956
2017-05-08T14:16:41.430Z,8860
2017-05-08T14:17:52.443Z,9736
2017-05-08T14:19:03.505Z,10672
2017-05-08T14:20:14.539Z,11748
2017-05-08T14:21:25.960Z,14112
2017-05-08T14:22:36.975Z,12904
2017-05-08T14:23:47.998Z,15616
2017-05-08T14:24:59.009Z,8744
2017-05-08T14:26:10.230Z,6032
2017-05-08T14:27:21.244Z,3956
2017-05-08T14:28:32.465Z,2560
2017-05-08T14:29:43.685Z,1700
2017-05-08T14:30:54.896Z,1420
2017-05-08T14:32:06.109Z,1692
2017-05-08T14:33:17.125Z,2080
2017-05-08T14:34:28.131Z,2340
2017-05-08T14:35:39.342Z,2528
2017-05-08T14:36:50.355Z,2772
2017-05-08T14:38:01.396Z,3044
2017-05-08T14:39:12.423Z,3424
2017-05-08T14:40:23.495Z,3900
2017-05-08T14:41:34.504Z,4416
2017-05-08T14:42:45.515Z,5044
2017-05-08T14:43:56.541Z,5672
2017-05-08T14:45:07.758Z,6292
2017-05-08T14:46:18.774Z,6908
2017-05-08T14:47:29.987Z,8860
2017-05-08T14:48:41.003Z,9164
2017-05-08T14:49:52.014Z,7752
2017-05-08T14:51:03.475Z,7632
2017-05-08T14:52:14.681Z,8832
2017-05-08T14:53:25.691Z,9304
2017-05-08T14:54:36.704Z,9400
2017-05-08T14:55:47.913Z,8340
2017-05-08T14:56:58.923Z,8560
2017-05-08T14:58:09.941Z,7864
2017-05-08T14:59:20.953Z,7644
2017-05-08T15:00:32.169Z,7604
2017-05-08T15:01:43.433Z,8080
2017-05-08T15:02:54.456Z,8744
2017-05-08T15:04:05.469Z,8172
2017-05-08T15:05:16.676Z,7944
2017-05-08T15:06:27.693Z,7852
2017-05-08T15:07:38.717Z,7644
2017-05-08T15:08:49.725Z,7400
2017-05-08T15:10:00.748Z,5984
2017-05-08T15:11:11.760Z,6848
2017-05-08T15:12:22.830Z,6424
2017-05-08T15:13:33.835Z,5184
2017-05-08T15:14:44.856Z,6304
2017-05-08T15:15:55.870Z,6092
2017-05-08T15:17:06.883Z,6032
2017-05-08T15:18:18.305Z,6104
2017-05-08T15:19:29.326Z,6212
2017-05-08T15:20:40.342Z,6048
2017-05-08T15:21:51.350Z,6712
2017-05-08T15:23:02.404Z,6612
2017-05-08T15:24:13.407Z,6572
2017-05-08T15:25:24.421Z,6544
2017-05-08T15:26:35.434Z,6532
2017-05-08T15:27:46.642Z,6340
2017-05-08T15:28:57.655Z,6124
2017-05-08T15:30:08.668Z,5936
2017-05-08T15:31:19.882Z,5756
2017-05-08T15:32:30.902Z,5544
2017-05-08T15:33:41.911Z,5476
2017-05-08T15:34:52.969Z,5336
2017-05-08T15:36:03.976Z,5324
2017-05-08T15:37:14.983Z,5368
2017-05-08T15:38:25.995Z,5276
2017-05-08T15:39:37.008Z,5176
2017-05-08T15:40:48.072Z,4908
2017-05-08T15:41:59.085Z,4836
2017-05-08T15:43:10.114Z,4968
2017-05-08T15:44:21.125Z,4464
2017-05-08T15:45:32.146Z,4384
2017-05-08T15:46:43.176Z,4112
2017-05-08T15:47:54.394Z,3952
2017-05-08T15:49:05.399Z,3836
2017-05-08T15:50:16.455Z,4176
2017-05-08T15:51:27.669Z,4512
2017-05-08T15:52:38.677Z,4504
2017-05-08T15:53:49.904Z,5372
2017-05-08T15:55:00.916Z,4832
2017-05-08T15:56:11.926Z,5256
2017-05-08T15:57:22.951Z,5268
2017-05-08T15:58:33.960Z,4624
2017-05-08T15:59:45.168Z,3996
2017-05-08T16:00:56.222Z,3956
2017-05-08T16:02:07.233Z,4136
2017-05-08T16:03:18.250Z,4392
2017-05-08T16:04:29.270Z,4640
2017-05-08T16:05:40.284Z,4832
2017-05-08T16:06:51.308Z,4920
2017-05-08T16:08:02.320Z,4920
2017-05-08T16:09:13.360Z,4876
2017-05-08T16:10:24.373Z,4776
2017-05-08T16:11:35.442Z,4704